createdAt,value
2022-12-24T00:01:21.658Z,9.32
2022-12-24T00:06:20.718Z,9.26
2022-12-24T00:11:17.652Z,9.22
2022-12-24T00:16:14.259Z,9.18
2022-12-24T00:21:10.700Z,9.12
2022-12-24T00:26:07.104Z,9.10
2022-12-24T00:31:15.761Z,9.10
2022-12-24T00:36:12.525Z,9.07
2022-12-24T00:41:24.642Z,9.02
2022-12-24T00:46:22.324Z,9.01
2022-12-24T00:51:19.516Z,8.97
2022-12-24T00:56:15.905Z,8.92
2022-12-24T01:01:12.728Z,8.93
2022-12-24T01:06:11.899Z,8.88
2022-12-24T01:11:09.619Z,8.82
2022-12-24T01:16:15.455Z,8.74
2022-12-24T01:21:12.175Z,8.77
2022-12-24T01:26:12.092Z,8.82
2022-12-24T01:31:13.846Z,8.81
2022-12-24T01:36:11.199Z,8.83
2022-12-24T01:41:34.029Z,8.84
2022-12-24T01:46:32.554Z,8.80
2022-12-24T01:51:37.957Z,8.77
2022-12-24T01:56:37.008Z,8.77
2022-12-24T02:01:34.528Z,8.75
2022-12-24T02:06:30.969Z,8.78
2022-12-24T02:11:27.251Z,8.78
2022-12-24T02:17:01.453Z,8.84
2022-12-24T02:22:04.706Z,8.88
2022-12-24T02:27:17.823Z,8.87
2022-12-24T02:32:27.743Z,8.81
2022-12-24T02:37:33.017Z,8.83
2022-12-24T02:42:37.637Z,8.73
2022-12-24T02:47:35.118Z,8.70
2022-12-24T02:52:39.845Z,8.64
2022-12-24T02:58:10.090Z,8.65
2022-12-24T03:03:21.177Z,8.58
2022-12-24T03:08:43.979Z,8.55
2022-12-24T03:13:41.538Z,8.49
2022-12-24T03:18:42.914Z,8.45
2022-12-24T03:23:39.642Z,8.49
2022-12-24T03:28:38.781Z,8.53
2022-12-24T03:33:35.821Z,8.60
2022-12-24T03:38:32.269Z,8.62
2022-12-24T03:43:28.896Z,8.63
2022-12-24T03:48:32.424Z,8.59
2022-12-24T03:53:29.235Z,8.57
2022-12-24T03:58:25.970Z,8.55
2022-12-24T04:03:22.397Z,8.56
2022-12-24T04:08:18.926Z,8.55
2022-12-24T04:13:15.215Z,8.59
2022-12-24T04:18:11.534Z,8.58
2022-12-24T04:23:07.830Z,8.48
2022-12-24T04:28:04.351Z,8.47
2022-12-24T04:33:00.660Z,8.44
2022-12-24T04:37:57.785Z,8.45
2022-12-24T04:42:54.084Z,8.43
2022-12-24T04:47:50.369Z,8.46
2022-12-24T04:52:46.718Z,8.52
2022-12-24T04:57:43.530Z,8.45
2022-12-24T05:02:41.830Z,8.42
2022-12-24T05:07:38.209Z,8.44
2022-12-24T05:12:34.524Z,8.44
2022-12-24T05:17:30.903Z,8.45
2022-12-24T05:22:45.962Z,8.41
2022-12-24T05:27:47.446Z,8.37
2022-12-24T05:32:47.174Z,8.32
2022-12-24T05:37:43.452Z,8.22
2022-12-24T05:42:39.801Z,8.05
2022-12-24T05:47:42.884Z,7.94
2022-12-24T05:52:39.716Z,7.87
2022-12-24T05:57:36.068Z,7.83
2022-12-24T06:02:32.515Z,7.80
2022-12-24T06:07:28.880Z,7.87
2022-12-24T06:12:25.259Z,7.89
2022-12-24T06:17:21.603Z,7.91
2022-12-24T06:22:18.006Z,8.00
2022-12-24T06:27:14.375Z,8.06
2022-12-24T06:32:10.780Z,8.06
2022-12-24T06:37:07.331Z,8.09
2022-12-24T06:42:03.701Z,8.12
2022-12-24T06:47:00.526Z,8.08
2022-12-24T06:51:56.926Z,8.15
2022-12-24T06:56:53.273Z,8.13
2022-12-24T07:01:49.704Z,8.09
2022-12-24T07:06:46.139Z,8.06
2022-12-24T07:11:42.509Z,8.02
2022-12-24T07:16:38.915Z,8.02
2022-12-24T07:21:35.409Z,8.04
2022-12-24T07:26:31.837Z,7.99
2022-12-24T07:31:28.246Z,7.97
2022-12-24T07:36:24.893Z,8.02
2022-12-24T07:41:21.853Z,7.92
2022-12-24T07:46:18.312Z,7.97
2022-12-24T07:51:14.854Z,7.96
2022-12-24T07:56:13.094Z,8.04
2022-12-24T08:01:12.019Z,8.08
2022-12-24T08:06:08.543Z,8.08
2022-12-24T08:11:06.921Z,8.05
2022-12-24T08:16:03.464Z,8.09
2022-12-24T08:20:59.909Z,8.12
2022-12-24T08:25:56.306Z,8.13
2022-12-24T08:30:52.711Z,8.15
2022-12-24T08:35:50.613Z,8.19
2022-12-24T08:40:49.787Z,8.24
2022-12-24T08:45:49.145Z,8.25
2022-12-24T08:50:45.791Z,8.29
2022-12-24T08:55:42.382Z,8.28
2022-12-24T09:00:38.863Z,8.29
2022-12-24T09:05:40.214Z,8.44
2022-12-24T09:10:36.626Z,8.67
2022-12-24T09:15:33.176Z,8.82
2022-12-24T09:20:29.585Z,8.88
2022-12-24T09:25:25.999Z,8.87
2022-12-24T09:30:22.760Z,8.84
2022-12-24T09:35:19.180Z,8.86
2022-12-24T09:40:28.973Z,8.83
2022-12-24T09:45:32.677Z,8.81
2022-12-24T09:50:37.825Z,8.83
2022-12-24T09:55:44.459Z,8.85
2022-12-24T10:00:47.776Z,8.93
2022-12-24T10:06:02.708Z,9.01
2022-12-24T10:11:18.012Z,8.98
2022-12-24T10:16:29.590Z,9.00
2022-12-24T10:21:55.799Z,9.07
2022-12-24T10:27:05.908Z,9.13
2022-12-24T10:32:08.497Z,9.15
2022-12-24T10:37:05.012Z,9.19
2022-12-24T10:42:01.869Z,9.20
2022-12-24T10:46:59.451Z,9.23
2022-12-24T10:51:59.914Z,9.26
2022-12-24T10:57:00.214Z,9.27
2022-12-24T11:01:59.125Z,9.28
2022-12-24T11:07:05.989Z,9.38
2022-12-24T11:12:16.351Z,9.55
2022-12-24T11:17:22.254Z,9.52
2022-12-24T11:22:25.282Z,9.49
2022-12-24T11:27:41.718Z,9.52
2022-12-24T11:32:38.100Z,9.59
2022-12-24T11:37:34.781Z,9.55
2022-12-24T11:42:36.875Z,9.59
2022-12-24T11:47:38.830Z,9.52
2022-12-24T11:52:35.859Z,9.50
2022-12-24T11:57:46.603Z,9.64
2022-12-24T12:02:47.864Z,9.67
2022-12-24T12:07:50.591Z,9.58
2022-12-24T12:13:00.030Z,9.61
2022-12-24T12:18:15.203Z,9.63
2022-12-24T12:23:15.596Z,9.76
2022-12-24T12:28:20.507Z,9.72
2022-12-24T12:33:30.278Z,9.70
2022-12-24T12:38:31.659Z,9.64
2022-12-24T12:43:52.700Z,9.71
2022-12-24T12:49:04.812Z,9.81
2022-12-24T12:54:32.568Z,9.74
2022-12-24T12:59:51.209Z,9.68
2022-12-24T13:04:56.437Z,9.68
2022-12-24T13:09:59.383Z,9.67
2022-12-24T13:15:14.073Z,9.67
2022-12-24T13:20:23.036Z,9.62
2022-12-24T13:25:37.380Z,9.65
2022-12-24T13:30:39.600Z,9.62
2022-12-24T13:35:38.568Z,9.56
2022-12-24T13:40:35.306Z,9.53
2022-12-24T13:45:31.805Z,9.48
2022-12-24T13:50:39.423Z,9.48
2022-12-24T13:55:35.814Z,9.46
2022-12-24T14:00:43.148Z,9.53
2022-12-24T14:05:47.045Z,9.54
2022-12-24T14:11:14.554Z,9.53
2022-12-24T14:16:30.657Z,9.55
2022-12-24T14:21:32.004Z,9.57
2022-12-24T14:26:32.556Z,9.50
2022-12-24T14:31:28.973Z,9.44
2022-12-24T14:36:25.347Z,9.37
2022-12-24T14:42:00.131Z,9.33
2022-12-24T14:47:02.164Z,9.28
2022-12-24T14:52:37.673Z,9.23
2022-12-24T14:57:33.054Z,9.16
2022-12-24T15:02:47.635Z,9.10
2022-12-24T15:07:56.146Z,8.95
2022-12-24T15:12:53.312Z,8.82
2022-12-24T15:17:50.876Z,8.72
2022-12-24T15:22:51.652Z,8.65
2022-12-24T15:27:48.211Z,8.58
2022-12-24T15:32:44.839Z,8.48
2022-12-24T15:37:42.405Z,8.37
2022-12-24T15:42:42.377Z,8.30
2022-12-24T15:47:48.186Z,8.18
2022-12-24T15:52:45.626Z,8.09
2022-12-24T15:57:41.975Z,7.99
2022-12-24T16:02:45.614Z,7.93
2022-12-24T16:08:05.321Z,7.83
2022-12-24T16:13:01.953Z,7.75
2022-12-24T16:17:58.416Z,7.61
2022-12-24T16:22:55.183Z,7.60
2022-12-24T16:27:52.744Z,7.53
2022-12-24T16:32:50.902Z,7.39
2022-12-24T16:37:47.304Z,7.39
2022-12-24T16:43:02.146Z,7.41
2022-12-24T16:47:59.422Z,7.28
2022-12-24T16:52:55.949Z,7.26
2022-12-24T16:57:52.308Z,7.34
2022-12-24T17:02:49.760Z,7.10
2022-12-24T17:07:46.376Z,7.01
2022-12-24T17:12:43.808Z,6.98
2022-12-24T17:17:40.201Z,6.88
2022-12-24T17:22:37.326Z,6.87
2022-12-24T17:27:33.840Z,6.89
2022-12-24T17:32:30.289Z,6.87
2022-12-24T17:37:26.945Z,6.77
2022-12-24T17:42:23.354Z,6.72
2022-12-24T17:47:19.749Z,6.62
2022-12-24T17:52:16.138Z,6.48
2022-12-24T17:57:12.767Z,6.40
2022-12-24T18:02:11.453Z,6.41
2022-12-24T18:07:08.151Z,6.36
2022-12-24T18:12:05.258Z,6.42
2022-12-24T18:17:01.713Z,6.30
2022-12-24T18:21:58.041Z,6.17
2022-12-24T18:26:55.131Z,6.01
2022-12-24T18:31:51.552Z,5.97
2022-12-24T18:36:54.614Z,5.84
2022-12-24T18:41:51.911Z,5.79
2022-12-24T18:46:48.263Z,5.85
2022-12-24T18:51:44.603Z,5.74
2022-12-24T18:56:40.921Z,5.69
2022-12-24T19:01:37.378Z,5.69
2022-12-24T19:06:33.923Z,5.49
2022-12-24T19:11:32.240Z,5.40
2022-12-24T19:16:30.201Z,5.21
2022-12-24T19:21:27.204Z,5.13
2022-12-24T19:26:23.879Z,5.06
2022-12-24T19:31:23.010Z,5.09
2022-12-24T19:36:22.137Z,4.85
2022-12-24T19:41:21.752Z,4.75
2022-12-24T19:46:21.386Z,4.63
2022-12-24T19:51:18.598Z,4.49
2022-12-24T19:56:17.151Z,4.38
2022-12-24T20:01:16.781Z,4.17
2022-12-24T20:06:15.320Z,3.94
2022-12-24T20:11:14.456Z,3.88
2022-12-24T20:16:20.977Z,3.65
2022-12-24T20:21:17.779Z,3.38
2022-12-24T20:26:16.699Z,3.43
2022-12-24T20:31:18.892Z,3.15
2022-12-24T20:36:17.885Z,3.14
2022-12-24T20:41:16.308Z,3.03
2022-12-24T20:46:12.786Z,3.04
2022-12-24T20:51:21.010Z,3.00
2022-12-24T20:56:20.372Z,3.06
2022-12-24T21:01:24.293Z,3.21
2022-12-24T21:06:22.155Z,3.18
2022-12-24T21:11:38.643Z,3.04
2022-12-24T21:16:36.449Z,2.85
2022-12-24T21:21:33.431Z,2.69
2022-12-24T21:26:29.903Z,2.73
2022-12-24T21:31:27.005Z,2.83
2022-12-24T21:36:24.094Z,2.76
2022-12-24T21:41:25.921Z,2.84
2022-12-24T21:46:25.937Z,2.97
2022-12-24T21:51:23.601Z,3.09
2022-12-24T21:56:21.298Z,3.24
2022-12-24T22:01:18.363Z,3.19
2022-12-24T22:06:35.155Z,2.95
2022-12-24T22:11:54.377Z,2.99
2022-12-24T22:16:51.847Z,3.11
2022-12-24T22:21:48.221Z,3.12
2022-12-24T22:26:45.241Z,3.19
2022-12-24T22:31:41.708Z,3.27
2022-12-24T22:36:38.070Z,3.25
2022-12-24T22:41:34.852Z,3.31
2022-12-24T22:46:31.317Z,3.23
2022-12-24T22:51:27.665Z,3.34
2022-12-24T22:56:24.070Z,3.42
2022-12-24T23:01:31.825Z,3.52
2022-12-24T23:06:28.937Z,3.60
2022-12-24T23:11:25.603Z,3.47
2022-12-24T23:16:22.209Z,3.27
2022-12-24T23:21:19.500Z,3.23
2022-12-24T23:26:18.825Z,3.18
2022-12-24T23:31:16.710Z,3.05
2022-12-24T23:36:13.409Z,3.03
2022-12-24T23:41:11.379Z,3.04
2022-12-24T23:46:07.727Z,3.20
2022-12-24T23:51:19.052Z,3.25
2022-12-24T23:56:15.656Z,3.22
